Terminal Aerodrome Forecast
Issued by NWS

Home | Current Version | Previous Version | Text Only | Print | Product List | Glossary On
Versions: 1 2 3 4 5 6 7 8 9 10 11 12 13 14 15 16 17 18 19 20 21 22 23 24
752
FTUS43 KDDC 242336 AAB
TAFHYS
TAF AMD
KHYS 242336Z 2500/2518 33016G25KT P6SM VCSH BKN011 OVC060
      TEMPO 2503/2505 4SM -RA OVC015
     FM250500 33015G22KT 6SM -SHRA OVC025
     FM250700 33018KT 6SM -SHRA OVC020
     FM251100 34010G20KT P6SM OVC015=

USA.gov is the U.S. government's official web portal to all federal, state and local government web resources and services.